Terminal Aerodrome Forecast
Issued by NWS

Home | Current Version | Previous Version | Text Only | Print | Product List | Glossary Off
Versions: 1 2 3 4 5 6 7 8 9 10 11 12 13

000
FTUS43 KOAX 102320
TAFCDR
TAF
KCDR 102320Z 1100/1124 27012KT P6SM SCT250
     FM111000 29015G25KT P6SM BKN200
     FM111600 32022G32KT P6SM BKN200=

USA.gov is the U.S. government's official web portal to all federal, state and local government web resources and services.